Time;durP1;ratioP1;P1;durP2;ratioP2;P2;SDS_P1;SDS_P2;PMS_P1;PMS_P2;Temp;Humidity;BMP_temperature;BMP_pressure;BME280_temperature;BME280_humidity;BME280_pressure;Samples;Min_cycle;Max_cycle;Signal;HPM_P1;HPM_P2
2023/11/17 00:00:44;;;;;;;9.90;5.37;;;15.70;57.10;;;;;;5055555;28;20453;-78
2023/11/17 00:03:12;;;;;;;6.47;4.97;;;15.70;57.50;;;;;;5053513;28;20470;-78
2023/11/17 00:05:40;;;;;;;7.70;5.13;;;15.60;57.20;;;;;;5045349;28;20496;-77
2023/11/17 00:08:07;;;;;;;6.33;4.83;;;15.60;57.60;;;;;;5053371;28;20514;-77
2023/11/17 00:10:38;;;;;;;8.50;5.23;;;15.60;57.30;;;;;;5048821;28;20505;-78
2023/11/17 00:13:06;;;;;;;8.10;5.70;;;15.60;57.60;;;;;;5048513;28;20493;-78
2023/11/17 00:15:34;;;;;;;6.90;4.97;;;15.60;57.60;;;;;;5046800;28;20443;-77
2023/11/17 00:18:02;;;;;;;7.47;5.20;;;15.60;57.40;;;;;;5050750;28;20533;-77
2023/11/17 00:20:33;;;;;;;6.97;5.00;;;15.60;57.70;;;;;;5046219;28;20450;-78
2023/11/17 00:23:04;;;;;;;8.73;5.23;;;15.60;57.60;;;;;;5053583;28;20465;-78
2023/11/17 00:25:33;;;;;;;6.00;4.83;;;15.60;57.40;;;;;;5054613;28;20446;-79
2023/11/17 00:28:02;;;;;;;7.17;5.30;;;15.50;57.70;;;;;;5049955;28;20543;-78
2023/11/17 00:31:01;;;;;;;6.10;4.70;;;15.60;57.40;;;;;;5056245;28;20456;-79
2023/11/17 00:33:39;;;;;;;5.33;4.57;;;15.50;57.90;;;;;;5059952;28;20470;-79
2023/11/17 00:36:15;;;;;;;7.67;5.00;;;15.50;57.90;;;;;;5059334;28;20450;-78
2023/11/17 00:38:43;;;;;;;5.97;4.17;;;15.60;57.80;;;;;;5058284;28;20449;-79
2023/11/17 00:41:12;;;;;;;7.67;4.60;;;15.50;57.80;;;;;;5057745;28;20431;-78
2023/11/17 00:43:55;;;;;;;6.53;4.40;;;15.50;57.90;;;;;;5063425;28;20473;-79
2023/11/17 00:46:23;;;;;;;6.10;4.83;;;15.50;57.90;;;;;;5069346;28;20506;-79
2023/11/17 00:48:56;;;;;;;7.73;5.30;;;15.50;58.10;;;;;;5069222;28;20991;-79
2023/11/17 00:51:25;;;;;;;6.10;4.67;;;15.50;58.00;;;;;;5043698;28;20442;-78
2023/11/17 00:53:55;;;;;;;6.23;4.33;;;15.50;58.00;;;;;;5056248;28;20442;-79
2023/11/17 00:56:23;;;;;;;5.63;4.57;;;15.40;57.70;;;;;;5044354;28;20451;-78
2023/11/17 00:58:50;;;;;;;7.23;5.10;;;15.40;57.90;;;;;;5054084;28;20439;-78
2023/11/17 01:01:20;;;;;;;7.00;5.37;;;15.40;57.90;;;;;;5065443;28;20446;-79
2023/11/17 01:03:51;;;;;;;8.00;4.60;;;15.40;58.10;;;;;;5061374;28;20474;-78
2023/11/17 01:06:20;;;;;;;5.50;4.50;;;15.40;57.80;;;;;;5038740;28;21008;-79
2023/11/17 01:08:50;;;;;;;10.00;5.30;;;15.40;58.00;;;;;;5053575;28;20449;-79
2023/11/17 01:11:18;;;;;;;5.10;4.60;;;15.40;57.90;;;;;;5066561;28;20469;-78
2023/11/17 01:13:45;;;;;;;6.70;5.40;;;15.40;58.10;;;;;;5058344;28;20462;-78
2023/11/17 01:16:16;;;;;;;5.17;4.20;;;15.40;58.10;;;;;;5055813;28;20450;-78
2023/11/17 01:18:45;;;;;;;8.03;4.80;;;15.40;58.10;;;;;;5056420;28;20432;-77
2023/11/17 01:21:13;;;;;;;5.47;4.70;;;15.30;57.80;;;;;;5055219;28;20500;-76
2023/11/17 01:23:42;;;;;;;7.00;5.07;;;15.30;58.10;;;;;;5054697;28;20466;-76
2023/11/17 01:26:08;;;;;;;6.30;4.77;;;15.30;58.10;;;;;;5046949;28;20435;-76
2023/11/17 01:28:37;;;;;;;6.80;4.40;;;15.30;57.90;;;;;;5054918;28;20497;-76
2023/11/17 01:31:05;;;;;;;5.03;4.47;;;15.30;58.20;;;;;;5054851;28;20489;-77
2023/11/17 01:33:33;;;;;;;5.40;4.50;;;15.30;58.20;;;;;;5048759;28;20462;-76
2023/11/17 01:36:02;;;;;;;5.60;4.60;;;15.30;58.10;;;;;;5054987;28;20526;-76
2023/11/17 01:38:31;;;;;;;6.57;5.03;;;15.30;58.10;;;;;;5062848;28;20545;-77
2023/11/17 01:41:09;;;;;;;5.07;4.07;;;15.30;58.10;;;;;;5064064;28;20457;-77
2023/11/17 01:43:38;;;;;;;5.77;4.60;;;15.30;58.20;;;;;;5060266;28;20463;-77
2023/11/17 01:46:06;;;;;;;7.10;4.70;;;15.30;58.10;;;;;;5054637;28;20470;-77
2023/11/17 01:48:34;;;;;;;5.10;3.97;;;15.30;58.20;;;;;;5054539;28;20473;-77
2023/11/17 01:51:05;;;;;;;7.57;4.70;;;15.20;58.10;;;;;;5054434;28;20470;-78
2023/11/17 01:53:33;;;;;;;5.00;4.60;;;15.20;58.20;;;;;;5061240;28;20469;-80
2023/11/17 01:56:01;;;;;;;5.63;4.20;;;15.20;57.90;;;;;;5064214;28;20435;-80
2023/11/17 01:58:29;;;;;;;6.43;4.80;;;15.20;58.30;;;;;;5054766;28;20438;-77
2023/11/17 02:00:58;;;;;;;6.80;4.33;;;15.20;58.50;;;;;;5054349;28;20462;-77
2023/11/17 02:03:26;;;;;;;7.03;4.73;;;15.20;58.40;;;;;;5066323;28;20546;-77
2023/11/17 02:06:09;;;;;;;6.27;5.00;;;15.20;58.20;;;;;;5074756;28;20533;-77
2023/11/17 02:08:43;;;;;;;6.67;5.37;;;15.20;58.10;;;;;;5047573;28;20477;-76
2023/11/17 02:11:14;;;;;;;5.67;4.90;;;15.20;58.40;;;;;;5052148;28;20449;-77
2023/11/17 02:13:45;;;;;;;7.73;5.77;;;15.20;58.00;;;;;;5054244;28;20508;-77
2023/11/17 02:16:17;;;;;;;6.37;5.00;;;15.20;58.40;;;;;;5054420;28;20423;-77
2023/11/17 02:18:49;;;;;;;9.07;5.30;;;15.20;58.30;;;;;;5048027;28;20427;-78
2023/11/17 02:21:21;;;;;;;7.70;5.80;;;15.10;58.20;;;;;;5044591;28;20459;-77
2023/11/17 02:23:51;;;;;;;6.17;4.90;;;15.10;58.30;;;;;;5054014;28;20502;-76
2023/11/17 02:26:23;;;;;;;6.53;4.83;;;15.10;58.20;;;;;;5035038;28;20444;-77
2023/11/17 02:28:58;;;;;;;7.30;5.50;;;15.10;58.40;;;;;;5055602;28;20513;-77
2023/11/17 02:31:32;;;;;;;10.63;5.20;;;15.10;58.00;;;;;;5051718;28;20450;-77
2023/11/17 02:34:03;;;;;;;8.03;5.73;;;15.10;58.30;;;;;;5062205;28;20437;-77
2023/11/17 02:36:32;;;;;;;9.30;6.37;;;15.10;58.40;;;;;;5065599;28;20501;-76
2023/11/17 02:39:13;;;;;;;16.60;9.77;;;15.10;58.40;;;;;;5057438;28;20461;-76
2023/11/17 02:41:43;;;;;;;17.03;11.23;;;15.10;58.20;;;;;;5053822;28;20458;-78
2023/11/17 02:44:15;;;;;;;24.30;14.17;;;15.10;58.30;;;;;;5061833;28;20473;-78
2023/11/17 02:46:45;;;;;;;25.63;14.90;;;15.00;58.10;;;;;;5053877;28;20474;-78
2023/11/17 02:49:22;;;;;;;31.80;17.27;;;15.00;58.20;;;;;;5050126;28;20458;-78
2023/11/17 02:51:51;;;;;;;27.50;16.43;;;15.00;58.10;;;;;;5064073;28;20465;-78
2023/11/17 02:54:21;;;;;;;31.37;17.13;;;15.00;58.30;;;;;;5056907;28;20438;-78
2023/11/17 02:56:50;;;;;;;30.97;18.63;;;15.00;57.90;;;;;;5054764;28;20446;-78
2023/11/17 02:59:19;;;;;;;29.80;17.70;;;14.90;58.20;;;;;;5053419;28;20512;-78
2023/11/17 03:01:50;;;;;;;28.47;16.60;;;15.00;58.50;;;;;;5053159;28;20458;-77
2023/11/17 03:04:19;;;;;;;34.40;18.43;;;15.00;58.40;;;;;;5053578;28;20474;-78
2023/11/17 03:06:48;;;;;;;29.73;18.33;;;15.00;58.50;;;;;;5041472;28;20966;-78
2023/11/17 03:09:21;;;;;;;32.33;19.57;;;15.00;58.50;;;;;;5053946;28;20484;-78
2023/11/17 03:11:50;;;;;;;33.07;19.00;;;15.00;58.30;;;;;;5054505;28;20549;-78
2023/11/17 03:14:18;;;;;;;31.23;19.07;;;15.00;58.30;;;;;;5071804;28;20953;-77
2023/11/17 03:16:49;;;;;;;36.33;21.27;;;15.00;58.40;;;;;;5054494;28;21007;-78
2023/11/17 03:19:17;;;;;;;36.77;20.50;;;15.00;58.30;;;;;;5048066;28;20810;-78
2023/11/17 03:21:46;;;;;;;34.13;20.30;;;14.90;58.30;;;;;;5070060;28;20562;-78
2023/11/17 03:24:17;;;;;;;31.50;18.63;;;14.90;58.20;;;;;;5054932;28;20481;-78
2023/11/17 03:26:45;;;;;;;33.60;19.70;;;14.90;58.70;;;;;;5054944;28;20449;-78
2023/11/17 03:29:14;;;;;;;34.00;19.93;;;14.90;58.40;;;;;;5055510;28;20457;-78
2023/11/17 03:31:47;;;;;;;29.57;17.60;;;14.90;58.10;;;;;;5056874;28;20481;-78
2023/11/17 03:34:23;;;;;;;32.30;19.60;;;14.90;58.70;;;;;;5056350;28;20484;-77
2023/11/17 03:36:56;;;;;;;33.10;18.47;;;14.90;58.50;;;;;;5049936;28;20443;-78
2023/11/17 03:39:24;;;;;;;31.47;18.83;;;14.80;58.40;;;;;;5057332;28;20434;-78
2023/11/17 03:41:53;;;;;;;29.40;17.30;;;14.80;58.30;;;;;;5061989;28;20478;-78
2023/11/17 03:44:24;;;;;;;31.27;18.60;;;14.80;58.70;;;;;;5051632;28;20460;-78
2023/11/17 03:46:52;;;;;;;29.53;17.60;;;14.80;58.80;;;;;;5056295;28;20481;-78
2023/11/17 03:49:21;;;;;;;30.57;17.13;;;14.80;58.60;;;;;;5056949;28;20450;-78
2023/11/17 03:51:49;;;;;;;29.90;17.57;;;14.80;58.70;;;;;;5057066;28;20512;-79
2023/11/17 03:54:19;;;;;;;26.93;16.53;;;14.90;58.60;;;;;;5057051;28;20521;-78
2023/11/17 03:56:48;;;;;;;28.63;16.57;;;14.90;58.70;;;;;;5057313;28;20442;-78
2023/11/17 03:59:18;;;;;;;32.80;17.93;;;14.80;58.80;;;;;;5056864;28;20443;-78
2023/11/17 04:01:47;;;;;;;27.23;16.87;;;14.90;59.00;;;;;;5054293;28;20528;-78
2023/11/17 04:04:17;;;;;;;31.07;16.50;;;14.90;59.10;;;;;;5040456;28;20471;-79
2023/11/17 04:06:49;;;;;;;30.37;17.20;;;14.90;58.90;;;;;;5048560;28;20451;-79
2023/11/17 04:09:20;;;;;;;25.17;15.03;;;14.90;59.20;;;;;;5049742;28;20494;-79
2023/11/17 04:11:50;;;;;;;27.20;16.80;;;15.00;59.30;;;;;;5055519;28;20549;-79
2023/11/17 04:14:20;;;;;;;23.40;14.47;;;14.90;59.40;;;;;;5059109;22;21009;-77
2023/11/17 04:16:49;;;;;;;26.60;15.87;;;15.00;59.60;;;;;;5022895;28;20524;-76
2023/11/17 04:19:17;;;;;;;25.43;15.40;;;15.00;59.40;;;;;;5030988;28;20439;-77
2023/11/17 04:21:47;;;;;;;25.30;14.60;;;15.00;59.60;;;;;;5021944;28;20459;-77
2023/11/17 04:24:16;;;;;;;23.53;14.53;;;15.00;59.60;;;;;;5037583;28;20485;-77
2023/11/17 04:26:46;;;;;;;23.60;13.73;;;15.00;59.70;;;;;;5045154;28;20501;-78
2023/11/17 04:29:14;;;;;;;21.00;13.07;;;15.00;59.50;;;;;;5036070;28;20467;-77
2023/11/17 04:31:43;;;;;;;20.17;12.93;;;15.00;59.80;;;;;;5041724;28;20447;-77
2023/11/17 04:34:12;;;;;;;19.90;12.83;;;15.00;60.00;;;;;;5031000;28;20479;-78
2023/11/17 04:36:41;;;;;;;21.57;13.07;;;15.10;60.20;;;;;;5031248;28;20447;-77
2023/11/17 04:39:17;;;;;;;18.97;11.67;;;15.10;60.10;;;;;;5040385;28;20491;-77
2023/11/17 04:41:46;;;;;;;19.83;11.87;;;15.10;60.00;;;;;;5031614;28;20489;-77
2023/11/17 04:44:14;;;;;;;21.33;13.03;;;15.10;60.20;;;;;;5032489;28;20479;-78
2023/11/17 04:46:42;;;;;;;20.33;12.43;;;15.10;60.20;;;;;;5039491;28;20481;-77
2023/11/17 04:49:12;;;;;;;21.83;13.50;;;15.10;60.40;;;;;;5034634;28;20435;-78
2023/11/17 04:51:46;;;;;;;20.37;12.60;;;15.10;60.40;;;;;;5034155;28;20478;-77
2023/11/17 04:54:16;;;;;;;19.33;11.90;;;15.10;60.70;;;;;;5043220;28;20497;-78
2023/11/17 04:56:44;;;;;;;18.00;11.60;;;15.10;60.50;;;;;;5042233;28;20817;-76
2023/11/17 04:59:12;;;;;;;20.07;12.00;;;15.10;60.70;;;;;;5032632;28;21005;-77
2023/11/17 05:01:40;;;;;;;17.97;11.10;;;15.20;60.90;;;;;;5040005;28;20447;-75
2023/11/17 05:04:08;;;;;;;20.13;11.47;;;15.10;60.70;;;;;;5039520;28;20460;-76
2023/11/17 05:06:36;;;;;;;18.23;11.50;;;15.20;60.90;;;;;;5037656;28;20509;-76
2023/11/17 05:09:12;;;;;;;17.60;9.90;;;15.20;60.80;;;;;;5035616;28;20477;-77
2023/11/17 05:11:41;;;;;;;16.70;10.50;;;15.20;61.00;;;;;;5031203;28;20435;-76
2023/11/17 05:14:09;;;;;;;15.80;10.10;;;15.20;60.90;;;;;;5042609;28;20480;-76
2023/11/17 05:16:37;;;;;;;17.50;10.30;;;15.20;61.00;;;;;;5033904;28;20439;-77
2023/11/17 05:19:06;;;;;;;15.87;10.47;;;15.20;61.20;;;;;;5045783;28;20489;-77
2023/11/17 05:21:34;;;;;;;20.10;10.67;;;15.20;60.90;;;;;;5047137;28;20439;-77
2023/11/17 05:24:03;;;;;;;14.63;9.33;;;15.20;61.20;;;;;;5034129;28;20497;-76
2023/11/17 05:26:31;;;;;;;14.60;9.93;;;15.20;61.30;;;;;;5033904;28;20474;-77
2023/11/17 05:29:01;;;;;;;14.10;9.50;;;15.20;61.40;;;;;;5040029;28;20448;-76
2023/11/17 05:31:29;;;;;;;15.70;10.07;;;15.20;61.40;;;;;;5036811;28;20501;-77
2023/11/17 05:34:01;;;;;;;14.50;9.60;;;15.20;61.50;;;;;;5049053;28;20471;-77
2023/11/17 05:36:29;;;;;;;15.50;9.97;;;15.30;61.40;;;;;;5037728;28;20460;-78
2023/11/17 05:38:57;;;;;;;12.03;8.50;;;15.20;61.50;;;;;;5039816;28;20466;-77
2023/11/17 05:41:26;;;;;;;12.60;8.70;;;15.20;61.70;;;;;;5036667;28;20822;-77
2023/11/17 05:43:54;;;;;;;14.07;9.07;;;15.20;61.50;;;;;;5043458;28;20537;-76
2023/11/17 05:46:24;;;;;;;12.90;8.33;;;15.30;61.60;;;;;;5043448;28;21053;-77
2023/11/17 05:48:53;;;;;;;10.97;7.90;;;15.30;61.70;;;;;;5047159;28;20442;-77
2023/11/17 05:51:20;;;;;;;10.73;8.00;;;15.30;61.70;;;;;;5033762;28;20950;-77
2023/11/17 05:53:49;;;;;;;13.20;8.27;;;15.30;61.70;;;;;;5050058;28;20492;-77
2023/11/17 05:56:17;;;;;;;12.97;8.13;;;15.20;61.70;;;;;;5045952;28;20450;-76
2023/11/17 05:58:45;;;;;;;13.77;8.57;;;15.30;61.70;;;;;;5049888;28;20447;-76
2023/11/17 06:01:14;;;;;;;12.00;8.00;;;15.30;61.70;;;;;;5054394;28;20497;-76
2023/11/17 06:03:43;;;;;;;12.97;8.40;;;15.20;61.80;;;;;;5053944;28;21250;-76
2023/11/17 06:06:11;;;;;;;10.13;6.70;;;15.20;61.80;;;;;;5069522;28;20493;-75
2023/11/17 06:08:39;;;;;;;11.67;8.03;;;15.20;61.80;;;;;;5044439;28;20451;-76
2023/11/17 06:11:08;;;;;;;9.60;7.20;;;15.30;61.70;;;;;;5056450;28;20965;-75
2023/11/17 06:13:38;;;;;;;9.30;7.07;;;15.30;62.00;;;;;;5043045;28;20506;-76
2023/11/17 06:16:07;;;;;;;9.90;7.30;;;15.30;62.10;;;;;;5045058;28;20430;-75
2023/11/17 06:18:36;;;;;;;9.57;7.13;;;15.30;62.00;;;;;;5055946;28;20553;-75
2023/11/17 06:21:06;;;;;;;9.37;7.37;;;15.30;62.20;;;;;;5040350;28;20862;-75
2023/11/17 06:23:34;;;;;;;7.50;6.27;;;15.30;62.00;;;;;;5046741;28;20569;-76
2023/11/17 06:26:02;;;;;;;9.50;6.70;;;15.30;62.10;;;;;;5053584;28;20573;-76
2023/11/17 06:28:30;;;;;;;9.40;6.83;;;15.30;62.20;;;;;;5069905;28;20488;-76
2023/11/17 06:30:58;;;;;;;8.27;6.40;;;15.30;62.10;;;;;;5055905;28;20454;-76
2023/11/17 06:33:26;;;;;;;8.63;6.50;;;15.30;61.90;;;;;;5055561;28;20455;-76
2023/11/17 06:35:54;;;;;;;10.07;6.83;;;15.30;62.30;;;;;;5053434;28;20527;-76
2023/11/17 06:38:24;;;;;;;10.60;6.80;;;15.30;62.20;;;;;;5045171;28;20485;-76
2023/11/17 06:40:52;;;;;;;7.70;6.23;;;15.30;62.20;;;;;;5057130;28;20434;-76
2023/11/17 06:43:20;;;;;;;7.60;5.70;;;15.30;62.20;;;;;;5073364;28;20501;-76
2023/11/17 06:45:52;;;;;;;8.53;6.40;;;15.30;62.20;;;;;;5053715;28;20569;-77
2023/11/17 06:48:20;;;;;;;8.23;6.40;;;15.30;62.40;;;;;;5038939;28;20482;-76
2023/11/17 06:50:49;;;;;;;8.90;6.43;;;15.30;63.10;;;;;;5058467;28;20439;-76
2023/11/17 06:53:18;;;;;;;7.80;5.90;;;15.30;62.10;;;;;;5053382;28;20992;-76
2023/11/17 06:55:49;;;;;;;6.53;5.80;;;15.30;62.40;;;;;;5053666;28;20469;-76
2023/11/17 06:58:16;;;;;;;6.60;5.40;;;15.30;62.30;;;;;;5053278;28;20461;-77
2023/11/17 07:00:46;;;;;;;6.80;5.50;;;15.30;62.20;;;;;;5044968;28;20455;-76
2023/11/17 07:03:14;;;;;;;7.60;5.67;;;15.30;62.20;;;;;;5050793;28;20499;-76
2023/11/17 07:05:42;;;;;;;6.50;5.60;;;15.30;62.30;;;;;;5045791;28;20471;-76
2023/11/17 07:08:12;;;;;;;6.80;5.70;;;15.30;62.30;;;;;;5067148;28;20443;-76
2023/11/17 07:10:44;;;;;;;9.67;5.90;;;15.30;62.30;;;;;;5038301;28;20451;-76
2023/11/17 07:13:13;;;;;;;7.47;5.70;;;15.30;62.20;;;;;;5062108;28;20478;-77
2023/11/17 07:15:41;;;;;;;6.30;5.30;;;15.30;62.10;;;;;;5061060;28;20437;-76
2023/11/17 07:18:10;;;;;;;7.23;6.00;;;15.30;62.20;;;;;;5058378;28;20434;-77
2023/11/17 07:20:39;;;;;;;5.63;4.67;;;15.40;62.20;;;;;;5054869;28;20439;-76
2023/11/17 07:23:08;;;;;;;7.30;5.20;;;15.40;62.30;;;;;;5051824;28;20505;-77
2023/11/17 07:25:41;;;;;;;8.00;5.27;;;15.40;62.30;;;;;;5032251;28;20584;-77
2023/11/17 07:28:09;;;;;;;5.90;4.97;;;15.40;62.30;;;;;;5032396;28;20530;-76
2023/11/17 07:30:40;;;;;;;8.83;5.43;;;15.40;62.30;;;;;;5032442;28;20451;-76
2023/11/17 07:33:09;;;;;;;5.67;4.70;;;15.40;62.30;;;;;;5054057;28;20481;-77
2023/11/17 07:35:40;;;;;;;5.20;4.20;;;15.40;62.30;;;;;;5060533;28;20466;-76
2023/11/17 07:38:08;;;;;;;5.87;5.07;;;15.50;62.50;;;;;;5060797;28;20435;-76
2023/11/17 07:40:36;;;;;;;5.97;5.00;;;15.50;62.40;;;;;;5052475;28;20529;-76
2023/11/17 07:43:05;;;;;;;7.57;5.67;;;15.50;62.40;;;;;;5050281;28;20529;-76
2023/11/17 07:45:33;;;;;;;5.47;4.67;;;15.50;62.20;;;;;;5043759;28;20439;-76
2023/11/17 07:48:05;;;;;;;5.90;4.87;;;15.50;62.40;;;;;;5048780;28;20565;-76
2023/11/17 07:50:33;;;;;;;5.60;4.63;;;15.60;62.30;;;;;;5055533;28;20474;-77
2023/11/17 07:53:00;;;;;;;4.43;4.00;;;15.50;62.40;;;;;;5055671;28;20461;-76
2023/11/17 07:55:29;;;;;;;5.37;4.57;;;15.50;62.30;;;;;;5064453;28;20529;-77
2023/11/17 07:57:57;;;;;;;4.23;3.83;;;15.50;62.40;;;;;;5033450;28;20471;-77
2023/11/17 08:00:27;;;;;;;4.80;4.03;;;15.60;62.50;;;;;;5039039;28;20452;-77
2023/11/17 08:02:56;;;;;;;4.40;4.00;;;15.60;62.30;;;;;;5048068;28;20450;-76
2023/11/17 08:05:25;;;;;;;4.90;4.40;;;15.70;62.60;;;;;;5063606;28;20460;-76
2023/11/17 08:07:54;;;;;;;5.87;4.90;;;15.70;62.60;;;;;;5068930;28;20985;-76
2023/11/17 08:10:22;;;;;;;6.00;4.40;;;15.80;62.50;;;;;;5067095;28;20433;-76
2023/11/17 08:12:50;;;;;;;4.13;3.80;;;15.90;62.50;;;;;;5053200;28;20473;-76
2023/11/17 08:15:18;;;;;;;4.70;4.03;;;16.00;62.40;;;;;;5051996;28;20470;-76
2023/11/17 08:17:47;;;;;;;4.43;4.00;;;16.00;62.40;;;;;;5043873;28;20485;-76
2023/11/17 08:20:16;;;;;;;4.90;3.83;;;16.00;62.40;;;;;;5051458;28;20457;-76
2023/11/17 08:22:47;;;;;;;4.97;4.10;;;16.10;62.40;;;;;;5035785;28;20455;-76
2023/11/17 08:25:15;;;;;;;5.07;4.13;;;16.10;62.40;;;;;;5046394;28;20531;-77
2023/11/17 08:27:44;;;;;;;4.20;3.80;;;16.10;62.50;;;;;;5033098;28;20550;-76
2023/11/17 08:30:12;;;;;;;5.10;3.97;;;16.20;62.40;;;;;;5052155;28;20462;-76
2023/11/17 08:32:40;;;;;;;5.53;4.13;;;16.30;62.90;;;;;;5060430;28;20452;-76
2023/11/17 08:35:09;;;;;;;3.60;3.30;;;16.40;63.10;;;;;;5056262;28;20464;-76
2023/11/17 08:37:42;;;;;;;4.93;4.43;;;16.60;63.50;;;;;;5037396;28;20432;-76
2023/11/17 08:40:12;;;;;;;3.70;3.40;;;16.70;63.70;;;;;;5046709;28;20560;-76
2023/11/17 08:42:40;;;;;;;4.00;3.60;;;16.80;63.70;;;;;;5067297;28;20461;-76
2023/11/17 08:45:08;;;;;;;3.60;3.33;;;16.80;64.10;;;;;;5044390;28;20475;-76
2023/11/17 08:47:38;;;;;;;3.83;3.53;;;17.00;64.80;;;;;;5050901;28;20470;-78
2023/11/17 08:50:09;;;;;;;3.63;3.33;;;17.10;64.90;;;;;;5044014;28;20431;-76
2023/11/17 08:52:37;;;;;;;3.73;3.33;;;17.20;65.00;;;;;;5063089;28;20437;-77
2023/11/17 08:55:07;;;;;;;4.20;3.80;;;17.20;65.20;;;;;;5041550;28;21184;-76
2023/11/17 08:57:36;;;;;;;3.80;3.50;;;17.20;65.30;;;;;;5043227;28;20453;-76
2023/11/17 09:00:11;;;;;;;3.60;3.33;;;17.20;65.30;;;;;;5041262;28;20431;-77
2023/11/17 09:02:40;;;;;;;4.33;3.93;;;17.30;65.50;;;;;;5046967;28;20438;-75
2023/11/17 09:05:09;;;;;;;3.80;3.50;;;17.30;65.60;;;;;;5045163;28;20810;-76
2023/11/17 09:07:41;;;;;;;3.73;3.43;;;17.20;65.30;;;;;;5046410;28;20572;-75
2023/11/17 09:10:11;;;;;;;3.70;3.40;;;17.30;65.50;;;;;;5043147;28;20438;-76
2023/11/17 09:12:41;;;;;;;3.80;3.03;;;17.30;65.50;;;;;;5046685;28;20439;-76
2023/11/17 09:15:14;;;;;;;3.67;3.33;;;17.30;65.70;;;;;;5044250;28;20504;-77
2023/11/17 09:17:46;;;;;;;3.73;3.30;;;17.40;65.80;;;;;;5053698;28;20538;-76
2023/11/17 09:20:17;;;;;;;4.00;3.27;;;17.50;65.90;;;;;;5040208;28;20451;-77
2023/11/17 09:22:46;;;;;;;4.30;3.23;;;17.50;65.80;;;;;;5053459;28;20478;-77
2023/11/17 09:25:14;;;;;;;3.60;3.30;;;17.70;66.20;;;;;;5054700;28;20513;-77
2023/11/17 09:27:45;;;;;;;4.47;3.60;;;17.80;66.30;;;;;;5046980;28;20558;-76
2023/11/17 09:30:14;;;;;;;3.40;3.10;;;17.90;66.60;;;;;;5050550;28;20882;-76
2023/11/17 09:32:44;;;;;;;3.87;3.47;;;18.10;66.80;;;;;;5051372;28;20492;-77
2023/11/17 09:35:15;;;;;;;3.33;3.03;;;18.20;67.20;;;;;;5045641;28;20421;-76
2023/11/17 09:37:49;;;;;;;3.37;3.07;;;18.40;67.40;;;;;;5038301;28;20459;-76
2023/11/17 09:40:20;;;;;;;3.23;3.03;;;18.50;67.50;;;;;;5046330;28;20458;-77
2023/11/17 09:42:53;;;;;;;3.27;2.97;;;18.70;67.90;;;;;;5045268;28;20508;-77
2023/11/17 09:45:24;;;;;;;3.70;3.33;;;18.90;68.20;;;;;;5044006;28;20466;-77
2023/11/17 09:47:53;;;;;;;3.30;3.00;;;19.10;68.40;;;;;;5047504;28;20563;-77
2023/11/17 09:50:24;;;;;;;3.73;3.43;;;19.30;68.60;;;;;;5042853;28;20443;-77
2023/11/17 09:52:53;;;;;;;3.70;3.40;;;19.50;68.90;;;;;;5036842;28;20969;-75
2023/11/17 09:55:27;;;;;;;3.60;3.30;;;19.60;69.00;;;;;;5058235;28;20468;-76
2023/11/17 09:58:02;;;;;;;3.10;2.90;;;19.90;69.40;;;;;;5050540;28;20443;-76
2023/11/17 10:00:32;;;;;;;3.33;3.03;;;20.00;69.40;;;;;;5044349;28;20546;-77
2023/11/17 10:03:01;;;;;;;2.80;2.60;;;20.30;69.70;;;;;;5057184;28;20495;-76
2023/11/17 10:05:32;;;;;;;3.10;2.90;;;20.50;69.80;;;;;;5056342;28;20477;-75
2023/11/17 10:08:01;;;;;;;8.23;5.67;;;20.60;69.70;;;;;;5049859;28;20449;-76
2023/11/17 10:10:30;;;;;;;7.30;5.60;;;20.00;54.20;;;;;;5039561;28;20514;-76
2023/11/17 10:15:35;;;;;;;6.23;5.10;;;17.00;55.20;;;;;;4988540;28;20467;-77
2023/11/17 10:18:05;;;;;;;10.07;5.00;;;16.60;57.20;;;;;;4985651;28;20516;-80
2023/11/17 10:20:34;;;;;;;6.03;4.80;;;15.20;57.90;;;;;;4994256;28;20569;-76
2023/11/17 10:23:02;;;;;;;5.33;3.63;;;15.90;68.00;;;;;;4990150;28;20532;-76
2023/11/17 10:25:30;;;;;;;5.80;3.43;;;17.30;66.30;;;;;;4973400;28;20452;-79
2023/11/17 10:32:25;;;;;;;2.50;2.20;;;19.30;60.60;;;;;;4895150;29;20448;-76
2023/11/17 10:35:31;;;;;;;5.83;2.20;;;20.20;59.00;;;;;;4872543;29;20868;-77
2023/11/17 10:38:07;;;;;;;7.50;2.17;;;20.80;58.40;;;;;;4915876;29;20540;-77
2023/11/17 10:41:20;;;;;;;3.80;1.93;;;21.30;58.00;;;;;;4911890;29;20461;-78
2023/11/17 10:48:38;;;;;;;3.97;1.70;;;22.10;57.60;;;;;;4765554;29;20588;-76
2023/11/17 10:51:45;;;;;;;3.60;1.90;;;22.50;57.10;;;;;;4966481;28;20409;-77
2023/11/17 10:55:35;;;;;;;2.90;1.53;;;22.80;56.90;;;;;;5059624;23;20495;-79
2023/11/17 10:59:27;;;;;;;2.30;1.50;;;23.20;56.90;;;;;;5004958;28;20431;-79
2023/11/17 11:02:29;;;;;;;1.77;1.67;;;23.50;56.70;;;;;;5008945;28;20451;-76
2023/11/17 11:05:06;;;;;;;2.20;2.07;;;23.70;56.30;;;;;;5009847;28;20447;-81
2023/11/17 11:07:48;;;;;;;3.63;1.50;;;23.90;56.20;;;;;;5013528;28;20464;-83
2023/11/17 11:10:48;;;;;;;2.00;1.90;;;24.10;56.30;;;;;;5005228;28;20511;-80
2023/11/17 11:13:20;;;;;;;3.77;1.63;;;24.30;56.20;;;;;;5003521;28;20455;-77
2023/11/17 11:16:05;;;;;;;1.93;1.73;;;24.50;55.90;;;;;;5010442;28;20445;-77
2023/11/17 11:18:36;;;;;;;1.63;1.50;;;24.60;55.90;;;;;;5010822;28;20480;-76
2023/11/17 11:21:07;;;;;;;2.93;1.73;;;24.80;55.80;;;;;;5012475;28;20422;-78
2023/11/17 11:23:37;;;;;;;2.53;1.73;;;24.90;55.70;;;;;;5013170;28;20447;-78
2023/11/17 11:26:07;;;;;;;2.27;2.17;;;25.00;55.70;;;;;;5010344;28;20453;-78
2023/11/17 11:28:35;;;;;;;2.63;2.43;;;25.10;55.70;;;;;;5013857;28;20522;-77
2023/11/17 11:31:06;;;;;;;6.97;2.60;;;25.30;55.60;;;;;;5012355;28;20437;-77
2023/11/17 11:33:35;;;;;;;6.30;2.80;;;25.40;55.60;;;;;;5010430;28;20446;-76
2023/11/17 11:36:05;;;;;;;3.67;2.73;;;25.50;55.50;;;;;;5006007;28;20494;-78
2023/11/17 11:38:35;;;;;;;5.03;3.43;;;25.70;55.40;;;;;;5005362;28;20471;-78
2023/11/17 11:41:07;;;;;;;3.23;3.03;;;25.70;55.20;;;;;;5012613;28;20452;-78
2023/11/17 11:43:36;;;;;;;4.30;3.90;;;25.90;55.10;;;;;;5009998;28;20472;-77
2023/11/17 11:46:04;;;;;;;4.10;3.80;;;26.00;55.00;;;;;;5004369;28;20471;-78
2023/11/17 11:48:35;;;;;;;5.50;3.80;;;26.10;54.80;;;;;;5003287;28;20446;-77
2023/11/17 11:51:08;;;;;;;10.93;4.57;;;26.30;54.70;;;;;;5012591;28;20424;-77
2023/11/17 11:53:41;;;;;;;5.53;4.57;;;26.40;54.60;;;;;;4997301;28;20938;-77
2023/11/17 11:56:14;;;;;;;5.43;4.93;;;26.60;54.50;;;;;;5014719;28;20456;-79
2023/11/17 11:58:44;;;;;;;4.90;4.37;;;26.70;54.50;;;;;;5005676;28;20433;-77
2023/11/17 12:01:14;;;;;;;5.10;4.70;;;26.80;54.20;;;;;;5008907;28;20431;-76
2023/11/17 12:03:44;;;;;;;4.60;4.20;;;26.90;54.00;;;;;;5006736;28;20472;-77
2023/11/17 12:06:20;;;;;;;5.50;5.00;;;27.00;53.90;;;;;;5011067;28;20440;-77
2023/11/17 12:08:55;;;;;;;5.73;5.13;;;27.10;53.90;;;;;;5006612;28;20524;-77
2023/11/17 12:11:24;;;;;;;5.57;5.13;;;27.20;53.70;;;;;;5003588;28;20449;-77
2023/11/17 12:13:54;;;;;;;6.00;5.17;;;27.30;53.60;;;;;;5010839;28;20502;-77
2023/11/17 12:16:26;;;;;;;5.50;5.00;;;27.40;53.50;;;;;;5010965;28;20468;-77
2023/11/17 12:18:55;;;;;;;6.30;5.13;;;27.50;53.40;;;;;;5005532;28;20440;-77
2023/11/17 12:21:25;;;;;;;7.37;5.97;;;27.50;53.10;;;;;;5010839;28;20451;-77
2023/11/17 12:23:59;;;;;;;6.17;5.57;;;27.60;53.40;;;;;;5002434;28;20488;-77
2023/11/17 12:26:29;;;;;;;6.23;5.73;;;27.50;52.90;;;;;;5008009;28;20483;-78
2023/11/17 12:29:03;;;;;;;6.73;6.03;;;27.50;53.00;;;;;;5007389;28;20455;-77
2023/11/17 12:31:33;;;;;;;5.97;5.40;;;27.50;53.20;;;;;;5016389;28;20414;-78
2023/11/17 12:34:06;;;;;;;6.30;5.40;;;27.40;53.30;;;;;;5014365;28;20555;-77
2023/11/17 12:36:35;;;;;;;6.10;5.50;;;27.40;53.50;;;;;;5009144;28;20445;-77
2023/11/17 12:39:11;;;;;;;6.90;5.33;;;27.40;53.40;;;;;;5016336;28;20535;-77
2023/11/17 12:41:41;;;;;;;5.00;4.60;;;27.40;53.40;;;;;;5019710;28;20830;-77
2023/11/17 12:44:18;;;;;;;6.30;5.70;;;27.30;53.40;;;;;;5017043;28;20498;-76
2023/11/17 12:46:47;;;;;;;6.87;5.73;;;27.10;53.30;;;;;;5015776;28;20490;-76
2023/11/17 12:49:16;;;;;;;6.50;5.60;;;27.10;53.70;;;;;;5014590;28;20480;-74
2023/11/17 12:51:44;;;;;;;5.77;5.27;;;27.00;53.90;;;;;;5015599;28;20444;-75
2023/11/17 12:54:17;;;;;;;6.50;5.90;;;27.10;54.00;;;;;;5011005;28;20487;-76
2023/11/17 12:56:45;;;;;;;6.90;5.60;;;27.20;53.80;;;;;;5015470;28;20419;-76
2023/11/17 12:59:14;;;;;;;6.70;6.10;;;27.20;53.80;;;;;;5009445;28;20504;-76
2023/11/17 13:01:43;;;;;;;7.43;6.10;;;27.20;53.60;;;;;;5015477;28;20452;-76
2023/11/17 13:04:12;;;;;;;6.33;5.80;;;27.20;53.70;;;;;;5015393;28;20526;-77
2023/11/17 13:06:41;;;;;;;11.47;6.07;;;27.20;53.30;;;;;;5015734;28;20435;-76
2023/11/17 13:09:10;;;;;;;5.80;5.30;;;27.30;53.50;;;;;;5003879;28;20473;-76
2023/11/17 13:11:46;;;;;;;6.37;5.67;;;27.20;53.10;;;;;;5015487;28;20452;-77